sensor_id;sensor_type;location;lat;lon;timestamp;P1;durP1;ratioP1;P2;durP2;ratioP2
4732;SDS011;2380;53.668;10.008;2022-07-29T00:01:43;5.10;;;2.00;;
4732;SDS011;2380;53.668;10.008;2022-07-29T00:04:13;7.03;;;1.90;;
4732;SDS011;2380;53.668;10.008;2022-07-29T00:06:46;3.50;;;1.67;;
4732;SDS011;2380;53.668;10.008;2022-07-29T00:09:15;5.57;;;1.87;;
4732;SDS011;2380;53.668;10.008;2022-07-29T00:11:45;4.47;;;1.83;;
4732;SDS011;2380;53.668;10.008;2022-07-29T00:14:14;4.53;;;1.80;;
4732;SDS011;2380;53.668;10.008;2022-07-29T00:16:44;6.70;;;2.10;;
4732;SDS011;2380;53.668;10.008;2022-07-29T00:19:14;7.07;;;2.30;;
4732;SDS011;2380;53.668;10.008;2022-07-29T00:21:46;4.63;;;2.00;;
4732;SDS011;2380;53.668;10.008;2022-07-29T00:24:15;4.93;;;1.90;;
4732;SDS011;2380;53.668;10.008;2022-07-29T00:26:45;5.60;;;2.17;;
4732;SDS011;2380;53.668;10.008;2022-07-29T00:29:14;4.00;;;2.10;;
4732;SDS011;2380;53.668;10.008;2022-07-29T00:31:59;5.07;;;2.27;;
4732;SDS011;2380;53.668;10.008;2022-07-29T00:34:29;3.77;;;1.83;;
4732;SDS011;2380;53.668;10.008;2022-07-29T00:37:14;5.97;;;2.50;;
4732;SDS011;2380;53.668;10.008;2022-07-29T00:39:43;8.83;;;2.30;;
4732;SDS011;2380;53.668;10.008;2022-07-29T00:42:13;7.47;;;2.50;;
4732;SDS011;2380;53.668;10.008;2022-07-29T00:44:43;3.83;;;1.90;;
4732;SDS011;2380;53.668;10.008;2022-07-29T00:47:12;4.00;;;2.33;;
4732;SDS011;2380;53.668;10.008;2022-07-29T00:49:42;5.90;;;2.50;;
4732;SDS011;2380;53.668;10.008;2022-07-29T00:52:15;4.97;;;2.83;;
4732;SDS011;2380;53.668;10.008;2022-07-29T00:54:44;4.80;;;2.70;;
4732;SDS011;2380;53.668;10.008;2022-07-29T00:57:14;4.40;;;2.37;;
4732;SDS011;2380;53.668;10.008;2022-07-29T00:59:43;5.83;;;3.07;;
4732;SDS011;2380;53.668;10.008;2022-07-29T01:02:13;5.73;;;2.33;;
4732;SDS011;2380;53.668;10.008;2022-07-29T01:04:43;5.30;;;2.60;;
4732;SDS011;2380;53.668;10.008;2022-07-29T01:07:15;5.47;;;2.50;;
4732;SDS011;2380;53.668;10.008;2022-07-29T01:09:45;5.03;;;2.40;;
4732;SDS011;2380;53.668;10.008;2022-07-29T01:12:16;4.10;;;2.30;;
4732;SDS011;2380;53.668;10.008;2022-07-29T01:14:50;4.83;;;2.47;;
4732;SDS011;2380;53.668;10.008;2022-07-29T01:17:22;9.67;;;2.57;;
4732;SDS011;2380;53.668;10.008;2022-07-29T01:19:56;7.63;;;2.50;;
4732;SDS011;2380;53.668;10.008;2022-07-29T01:22:36;5.73;;;2.30;;
4732;SDS011;2380;53.668;10.008;2022-07-29T01:25:26;10.20;;;2.60;;
4732;SDS011;2380;53.668;10.008;2022-07-29T01:28:07;4.20;;;2.40;;
4732;SDS011;2380;53.668;10.008;2022-07-29T01:30:54;5.97;;;2.27;;
4732;SDS011;2380;53.668;10.008;2022-07-29T01:33:24;4.70;;;2.17;;
4732;SDS011;2380;53.668;10.008;2022-07-29T01:36:09;4.43;;;2.20;;
4732;SDS011;2380;53.668;10.008;2022-07-29T01:38:41;7.00;;;2.47;;
4732;SDS011;2380;53.668;10.008;2022-07-29T01:41:12;6.80;;;2.27;;
4732;SDS011;2380;53.668;10.008;2022-07-29T01:43:47;8.10;;;3.00;;
4732;SDS011;2380;53.668;10.008;2022-07-29T01:46:23;6.53;;;2.20;;
4732;SDS011;2380;53.668;10.008;2022-07-29T01:48:57;7.80;;;2.80;;
4732;SDS011;2380;53.668;10.008;2022-07-29T01:51:30;4.23;;;2.30;;
4732;SDS011;2380;53.668;10.008;2022-07-29T01:54:02;7.13;;;2.30;;
4732;SDS011;2380;53.668;10.008;2022-07-29T01:56:38;5.00;;;2.60;;
4732;SDS011;2380;53.668;10.008;2022-07-29T01:59:08;6.20;;;2.30;;
4732;SDS011;2380;53.668;10.008;2022-07-29T02:01:41;6.40;;;2.40;;
4732;SDS011;2380;53.668;10.008;2022-07-29T02:04:12;9.63;;;3.27;;
4732;SDS011;2380;53.668;10.008;2022-07-29T02:06:56;5.13;;;2.00;;
4732;SDS011;2380;53.668;10.008;2022-07-29T02:09:28;5.40;;;2.20;;
4732;SDS011;2380;53.668;10.008;2022-07-29T02:11:59;6.77;;;2.30;;
4732;SDS011;2380;53.668;10.008;2022-07-29T02:14:30;5.20;;;2.30;;
4732;SDS011;2380;53.668;10.008;2022-07-29T02:17:05;6.17;;;2.57;;
4732;SDS011;2380;53.668;10.008;2022-07-29T02:19:35;5.73;;;3.00;;
4732;SDS011;2380;53.668;10.008;2022-07-29T02:22:06;4.93;;;2.60;;
4732;SDS011;2380;53.668;10.008;2022-07-29T02:24:36;6.13;;;2.33;;
4732;SDS011;2380;53.668;10.008;2022-07-29T02:27:06;6.27;;;2.70;;
4732;SDS011;2380;53.668;10.008;2022-07-29T02:29:36;7.67;;;2.70;;
4732;SDS011;2380;53.668;10.008;2022-07-29T02:32:09;7.13;;;2.47;;
4732;SDS011;2380;53.668;10.008;2022-07-29T02:34:39;5.40;;;2.47;;
4732;SDS011;2380;53.668;10.008;2022-07-29T02:37:09;7.60;;;2.50;;
4732;SDS011;2380;53.668;10.008;2022-07-29T02:39:40;6.53;;;2.73;;
4732;SDS011;2380;53.668;10.008;2022-07-29T02:42:11;5.90;;;3.00;;
4732;SDS011;2380;53.668;10.008;2022-07-29T02:44:43;7.43;;;3.20;;
4732;SDS011;2380;53.668;10.008;2022-07-29T02:47:16;9.87;;;3.03;;
4732;SDS011;2380;53.668;10.008;2022-07-29T02:49:49;7.77;;;2.53;;
4732;SDS011;2380;53.668;10.008;2022-07-29T02:52:24;5.37;;;3.33;;
4732;SDS011;2380;53.668;10.008;2022-07-29T02:54:55;8.70;;;3.63;;
4732;SDS011;2380;53.668;10.008;2022-07-29T02:57:29;5.27;;;2.73;;
4732;SDS011;2380;53.668;10.008;2022-07-29T03:00:21;6.20;;;2.97;;
4732;SDS011;2380;53.668;10.008;2022-07-29T03:02:53;8.07;;;3.87;;
4732;SDS011;2380;53.668;10.008;2022-07-29T03:05:25;6.37;;;3.00;;
4732;SDS011;2380;53.668;10.008;2022-07-29T03:07:55;8.90;;;3.30;;
4732;SDS011;2380;53.668;10.008;2022-07-29T03:10:30;12.10;;;3.27;;
4732;SDS011;2380;53.668;10.008;2022-07-29T03:13:00;5.70;;;3.37;;
4732;SDS011;2380;53.668;10.008;2022-07-29T03:15:30;14.17;;;4.67;;
4732;SDS011;2380;53.668;10.008;2022-07-29T03:18:02;7.50;;;3.07;;
4732;SDS011;2380;53.668;10.008;2022-07-29T03:20:33;7.00;;;2.70;;
4732;SDS011;2380;53.668;10.008;2022-07-29T03:23:02;7.90;;;3.43;;
4732;SDS011;2380;53.668;10.008;2022-07-29T03:25:32;8.03;;;3.50;;
4732;SDS011;2380;53.668;10.008;2022-07-29T03:28:02;7.00;;;3.33;;
4732;SDS011;2380;53.668;10.008;2022-07-29T03:30:31;44.13;;;24.10;;
4732;SDS011;2380;53.668;10.008;2022-07-29T03:33:06;52.77;;;27.30;;
4732;SDS011;2380;53.668;10.008;2022-07-29T03:35:39;39.53;;;18.37;;
4732;SDS011;2380;53.668;10.008;2022-07-29T03:38:08;23.70;;;13.33;;
4732;SDS011;2380;53.668;10.008;2022-07-29T03:40:38;26.70;;;14.23;;
4732;SDS011;2380;53.668;10.008;2022-07-29T03:43:10;36.20;;;15.00;;
4732;SDS011;2380;53.668;10.008;2022-07-29T03:45:40;15.30;;;7.53;;
4732;SDS011;2380;53.668;10.008;2022-07-29T03:48:15;22.17;;;10.00;;
4732;SDS011;2380;53.668;10.008;2022-07-29T03:50:46;20.90;;;11.07;;
4732;SDS011;2380;53.668;10.008;2022-07-29T03:53:16;8.73;;;4.43;;
4732;SDS011;2380;53.668;10.008;2022-07-29T03:55:47;11.33;;;6.30;;
4732;SDS011;2380;53.668;10.008;2022-07-29T03:58:20;9.77;;;5.17;;
4732;SDS011;2380;53.668;10.008;2022-07-29T04:00:50;7.80;;;4.30;;
4732;SDS011;2380;53.668;10.008;2022-07-29T04:03:22;8.90;;;3.53;;
4732;SDS011;2380;53.668;10.008;2022-07-29T04:05:58;8.13;;;3.17;;
4732;SDS011;2380;53.668;10.008;2022-07-29T04:08:29;5.90;;;3.00;;
4732;SDS011;2380;53.668;10.008;2022-07-29T04:10:59;7.73;;;3.33;;
4732;SDS011;2380;53.668;10.008;2022-07-29T04:13:28;6.50;;;3.30;;
4732;SDS011;2380;53.668;10.008;2022-07-29T04:15:58;18.53;;;5.40;;
4732;SDS011;2380;53.668;10.008;2022-07-29T04:18:30;5.90;;;3.50;;
4732;SDS011;2380;53.668;10.008;2022-07-29T04:21:00;11.00;;;3.40;;
4732;SDS011;2380;53.668;10.008;2022-07-29T04:23:30;10.50;;;2.93;;
4732;SDS011;2380;53.668;10.008;2022-07-29T04:26:14;7.20;;;3.90;;
4732;SDS011;2380;53.668;10.008;2022-07-29T04:28:44;16.73;;;6.90;;
4732;SDS011;2380;53.668;10.008;2022-07-29T04:31:13;14.07;;;8.20;;
4732;SDS011;2380;53.668;10.008;2022-07-29T04:33:53;21.97;;;12.80;;
4732;SDS011;2380;53.668;10.008;2022-07-29T04:36:22;25.67;;;13.03;;
4732;SDS011;2380;53.668;10.008;2022-07-29T04:38:55;11.00;;;6.87;;
4732;SDS011;2380;53.668;10.008;2022-07-29T04:41:24;21.43;;;10.60;;
4732;SDS011;2380;53.668;10.008;2022-07-29T04:43:58;13.63;;;4.67;;
4732;SDS011;2380;53.668;10.008;2022-07-29T04:46:32;10.43;;;5.70;;
4732;SDS011;2380;53.668;10.008;2022-07-29T04:49:04;8.87;;;4.20;;
4732;SDS011;2380;53.668;10.008;2022-07-29T04:51:34;7.97;;;3.43;;
4732;SDS011;2380;53.668;10.008;2022-07-29T04:54:04;6.90;;;2.93;;
4732;SDS011;2380;53.668;10.008;2022-07-29T04:56:34;7.13;;;3.43;;
4732;SDS011;2380;53.668;10.008;2022-07-29T04:59:03;7.37;;;3.63;;
4732;SDS011;2380;53.668;10.008;2022-07-29T05:01:33;7.07;;;3.53;;
4732;SDS011;2380;53.668;10.008;2022-07-29T05:04:05;6.50;;;3.27;;
4732;SDS011;2380;53.668;10.008;2022-07-29T05:06:35;9.87;;;3.70;;
4732;SDS011;2380;53.668;10.008;2022-07-29T05:09:04;7.67;;;3.40;;
4732;SDS011;2380;53.668;10.008;2022-07-29T05:11:34;5.10;;;2.90;;
4732;SDS011;2380;53.668;10.008;2022-07-29T05:14:03;9.43;;;3.03;;
4732;SDS011;2380;53.668;10.008;2022-07-29T05:16:33;11.40;;;3.20;;
4732;SDS011;2380;53.668;10.008;2022-07-29T05:19:05;6.60;;;4.00;;
4732;SDS011;2380;53.668;10.008;2022-07-29T05:21:39;8.53;;;3.20;;
4732;SDS011;2380;53.668;10.008;2022-07-29T05:24:09;5.83;;;3.07;;
4732;SDS011;2380;53.668;10.008;2022-07-29T05:26:41;10.10;;;3.47;;
4732;SDS011;2380;53.668;10.008;2022-07-29T05:29:10;8.83;;;3.73;;
4732;SDS011;2380;53.668;10.008;2022-07-29T05:32:00;8.60;;;3.10;;
4732;SDS011;2380;53.668;10.008;2022-07-29T05:34:32;7.80;;;4.33;;
4732;SDS011;2380;53.668;10.008;2022-07-29T05:37:15;6.73;;;3.03;;
4732;SDS011;2380;53.668;10.008;2022-07-29T05:39:44;8.33;;;3.00;;
4732;SDS011;2380;53.668;10.008;2022-07-29T05:42:22;18.17;;;9.30;;
4732;SDS011;2380;53.668;10.008;2022-07-29T05:44:52;16.23;;;8.20;;
4732;SDS011;2380;53.668;10.008;2022-07-29T05:47:22;26.53;;;14.30;;
4732;SDS011;2380;53.668;10.008;2022-07-29T05:49:55;11.63;;;6.10;;
4732;SDS011;2380;53.668;10.008;2022-07-29T05:52:24;25.37;;;14.93;;
4732;SDS011;2380;53.668;10.008;2022-07-29T05:54:53;17.33;;;9.00;;
4732;SDS011;2380;53.668;10.008;2022-07-29T05:57:23;22.00;;;13.50;;
4732;SDS011;2380;53.668;10.008;2022-07-29T05:59:53;16.73;;;9.07;;
4732;SDS011;2380;53.668;10.008;2022-07-29T06:02:22;17.53;;;7.30;;
4732;SDS011;2380;53.668;10.008;2022-07-29T06:04:54;10.97;;;4.20;;
4732;SDS011;2380;53.668;10.008;2022-07-29T06:07:25;12.13;;;4.97;;
4732;SDS011;2380;53.668;10.008;2022-07-29T06:09:54;8.37;;;3.87;;
4732;SDS011;2380;53.668;10.008;2022-07-29T06:12:24;11.93;;;5.73;;
4732;SDS011;2380;53.668;10.008;2022-07-29T06:14:53;9.20;;;4.00;;
4732;SDS011;2380;53.668;10.008;2022-07-29T06:17:23;7.27;;;3.40;;
4732;SDS011;2380;53.668;10.008;2022-07-29T06:19:55;5.23;;;2.67;;
4732;SDS011;2380;53.668;10.008;2022-07-29T06:22:25;5.00;;;3.30;;
4732;SDS011;2380;53.668;10.008;2022-07-29T06:24:55;8.50;;;4.10;;
4732;SDS011;2380;53.668;10.008;2022-07-29T06:27:24;8.70;;;4.10;;
4732;SDS011;2380;53.668;10.008;2022-07-29T06:29:54;46.20;;;27.27;;
4732;SDS011;2380;53.668;10.008;2022-07-29T06:32:23;72.13;;;46.50;;
4732;SDS011;2380;53.668;10.008;2022-07-29T06:34:55;37.43;;;24.20;;
4732;SDS011;2380;53.668;10.008;2022-07-29T06:37:45;26.80;;;16.40;;
4732;SDS011;2380;53.668;10.008;2022-07-29T06:40:19;10.33;;;4.83;;
4732;SDS011;2380;53.668;10.008;2022-07-29T06:43:01;29.63;;;18.37;;
4732;SDS011;2380;53.668;10.008;2022-07-29T06:45:33;24.23;;;14.90;;
4732;SDS011;2380;53.668;10.008;2022-07-29T06:48:05;12.47;;;5.50;;
4732;SDS011;2380;53.668;10.008;2022-07-29T06:50:37;8.07;;;3.50;;
4732;SDS011;2380;53.668;10.008;2022-07-29T06:53:06;6.60;;;2.47;;
4732;SDS011;2380;53.668;10.008;2022-07-29T06:55:36;12.17;;;4.27;;
4732;SDS011;2380;53.668;10.008;2022-07-29T06:58:05;5.50;;;2.70;;
4732;SDS011;2380;53.668;10.008;2022-07-29T07:00:37;8.30;;;2.73;;
4732;SDS011;2380;53.668;10.008;2022-07-29T07:03:06;10.47;;;4.00;;
4732;SDS011;2380;53.668;10.008;2022-07-29T07:05:39;6.90;;;2.50;;
4732;SDS011;2380;53.668;10.008;2022-07-29T07:08:08;10.57;;;5.03;;
4732;SDS011;2380;53.668;10.008;2022-07-29T07:10:38;8.37;;;2.90;;
4732;SDS011;2380;53.668;10.008;2022-07-29T07:13:08;9.97;;;2.87;;
4732;SDS011;2380;53.668;10.008;2022-07-29T07:15:38;6.63;;;2.97;;
4732;SDS011;2380;53.668;10.008;2022-07-29T07:18:07;12.43;;;3.07;;
4732;SDS011;2380;53.668;10.008;2022-07-29T07:20:39;8.50;;;2.90;;
4732;SDS011;2380;53.668;10.008;2022-07-29T07:23:09;8.50;;;3.37;;
4732;SDS011;2380;53.668;10.008;2022-07-29T07:25:39;7.10;;;2.23;;
4732;SDS011;2380;53.668;10.008;2022-07-29T07:28:09;8.37;;;2.67;;
4732;SDS011;2380;53.668;10.008;2022-07-29T07:30:39;10.37;;;2.97;;
4732;SDS011;2380;53.668;10.008;2022-07-29T07:33:08;8.83;;;3.13;;
4732;SDS011;2380;53.668;10.008;2022-07-29T07:35:41;8.67;;;2.90;;
4732;SDS011;2380;53.668;10.008;2022-07-29T07:38:10;5.80;;;2.87;;
4732;SDS011;2380;53.668;10.008;2022-07-29T07:40:40;7.80;;;2.73;;
4732;SDS011;2380;53.668;10.008;2022-07-29T07:43:12;9.07;;;3.00;;
4732;SDS011;2380;53.668;10.008;2022-07-29T07:45:42;9.47;;;2.70;;
4732;SDS011;2380;53.668;10.008;2022-07-29T07:48:11;8.60;;;2.77;;
4732;SDS011;2380;53.668;10.008;2022-07-29T07:50:43;8.03;;;3.00;;
4732;SDS011;2380;53.668;10.008;2022-07-29T07:53:15;8.60;;;3.20;;
4732;SDS011;2380;53.668;10.008;2022-07-29T07:55:45;6.03;;;2.53;;
4732;SDS011;2380;53.668;10.008;2022-07-29T07:58:34;6.83;;;3.50;;
4732;SDS011;2380;53.668;10.008;2022-07-29T08:01:04;20.00;;;7.50;;
4732;SDS011;2380;53.668;10.008;2022-07-29T08:03:34;4.30;;;2.60;;
4732;SDS011;2380;53.668;10.008;2022-07-29T08:06:07;7.47;;;3.07;;
4732;SDS011;2380;53.668;10.008;2022-07-29T08:08:36;10.53;;;5.10;;
4732;SDS011;2380;53.668;10.008;2022-07-29T08:11:06;7.20;;;2.67;;
4732;SDS011;2380;53.668;10.008;2022-07-29T08:13:36;6.43;;;3.07;;
4732;SDS011;2380;53.668;10.008;2022-07-29T08:16:06;7.30;;;2.97;;
4732;SDS011;2380;53.668;10.008;2022-07-29T08:18:42;8.27;;;3.97;;
4732;SDS011;2380;53.668;10.008;2022-07-29T08:21:15;15.77;;;5.00;;
4732;SDS011;2380;53.668;10.008;2022-07-29T08:23:45;7.10;;;2.30;;
4732;SDS011;2380;53.668;10.008;2022-07-29T08:26:24;6.93;;;2.80;;
4732;SDS011;2380;53.668;10.008;2022-07-29T08:28:53;8.40;;;3.63;;
4732;SDS011;2380;53.668;10.008;2022-07-29T08:31:23;17.77;;;9.33;;
4732;SDS011;2380;53.668;10.008;2022-07-29T08:33:53;6.17;;;2.90;;
4732;SDS011;2380;53.668;10.008;2022-07-29T08:36:26;15.43;;;6.60;;
4732;SDS011;2380;53.668;10.008;2022-07-29T08:38:56;11.27;;;4.67;;
4732;SDS011;2380;53.668;10.008;2022-07-29T08:41:26;7.53;;;3.07;;
4732;SDS011;2380;53.668;10.008;2022-07-29T08:43:55;13.97;;;5.93;;
4732;SDS011;2380;53.668;10.008;2022-07-29T08:46:25;6.30;;;2.80;;
4732;SDS011;2380;53.668;10.008;2022-07-29T08:48:55;4.87;;;2.50;;
4732;SDS011;2380;53.668;10.008;2022-07-29T08:51:27;10.23;;;4.17;;
4732;SDS011;2380;53.668;10.008;2022-07-29T08:53:57;10.73;;;2.73;;
4732;SDS011;2380;53.668;10.008;2022-07-29T08:56:26;16.07;;;2.60;;
4732;SDS011;2380;53.668;10.008;2022-07-29T08:58:57;6.63;;;2.33;;
4732;SDS011;2380;53.668;10.008;2022-07-29T09:01:32;9.30;;;3.50;;
4732;SDS011;2380;53.668;10.008;2022-07-29T09:04:10;5.63;;;2.93;;
4732;SDS011;2380;53.668;10.008;2022-07-29T09:06:47;5.83;;;2.87;;
4732;SDS011;2380;53.668;10.008;2022-07-29T09:09:18;7.50;;;2.70;;
4732;SDS011;2380;53.668;10.008;2022-07-29T09:11:48;7.93;;;2.73;;
4732;SDS011;2380;53.668;10.008;2022-07-29T09:14:19;16.67;;;7.07;;
4732;SDS011;2380;53.668;10.008;2022-07-29T09:16:50;5.23;;;2.70;;
4732;SDS011;2380;53.668;10.008;2022-07-29T09:19:22;9.80;;;2.20;;
4732;SDS011;2380;53.668;10.008;2022-07-29T09:21:56;16.23;;;6.10;;
4732;SDS011;2380;53.668;10.008;2022-07-29T09:24:24;16.70;;;9.77;;
4732;SDS011;2380;53.668;10.008;2022-07-29T09:26:54;9.37;;;3.90;;
4732;SDS011;2380;53.668;10.008;2022-07-29T09:29:24;9.50;;;3.60;;
4732;SDS011;2380;53.668;10.008;2022-07-29T09:32:01;7.73;;;3.50;;
4732;SDS011;2380;53.668;10.008;2022-07-29T09:34:35;10.93;;;5.23;;
4732;SDS011;2380;53.668;10.008;2022-07-29T09:37:08;7.97;;;4.00;;
4732;SDS011;2380;53.668;10.008;2022-07-29T09:39:38;7.70;;;3.63;;
4732;SDS011;2380;53.668;10.008;2022-07-29T09:42:12;8.47;;;2.50;;
4732;SDS011;2380;53.668;10.008;2022-07-29T09:44:43;6.70;;;1.97;;
4732;SDS011;2380;53.668;10.008;2022-07-29T09:47:14;8.67;;;2.80;;
4732;SDS011;2380;53.668;10.008;2022-07-29T09:49:51;6.87;;;2.40;;
4732;SDS011;2380;53.668;10.008;2022-07-29T09:52:27;7.67;;;2.80;;
4732;SDS011;2380;53.668;10.008;2022-07-29T09:55:04;7.20;;;2.93;;
4732;SDS011;2380;53.668;10.008;2022-07-29T09:57:34;10.07;;;2.93;;
4732;SDS011;2380;53.668;10.008;2022-07-29T10:00:05;4.70;;;2.20;;
4732;SDS011;2380;53.668;10.008;2022-07-29T10:02:37;7.47;;;2.40;;
4732;SDS011;2380;53.668;10.008;2022-07-29T10:05:15;8.43;;;2.97;;
4732;SDS011;2380;53.668;10.008;2022-07-29T10:07:49;10.80;;;3.07;;
4732;SDS011;2380;53.668;10.008;2022-07-29T10:10:23;5.03;;;1.93;;
4732;SDS011;2380;53.668;10.008;2022-07-29T10:12:54;6.30;;;2.20;;
4732;SDS011;2380;53.668;10.008;2022-07-29T10:15:32;6.80;;;2.80;;
4732;SDS011;2380;53.668;10.008;2022-07-29T10:18:03;14.53;;;5.60;;
4732;SDS011;2380;53.668;10.008;2022-07-29T10:20:33;8.17;;;4.10;;
4732;SDS011;2380;53.668;10.008;2022-07-29T10:23:06;12.23;;;6.30;;
4732;SDS011;2380;53.668;10.008;2022-07-29T10:25:35;6.90;;;2.30;;
4732;SDS011;2380;53.668;10.008;2022-07-29T10:28:11;4.60;;;2.00;;
4732;SDS011;2380;53.668;10.008;2022-07-29T10:30:42;7.30;;;2.13;;
4732;SDS011;2380;53.668;10.008;2022-07-29T10:33:21;9.80;;;3.13;;
4732;SDS011;2380;53.668;10.008;2022-07-29T10:38:54;5.20;;;1.73;;
4732;SDS011;2380;53.668;10.008;2022-07-29T10:41:34;7.87;;;2.10;;
4732;SDS011;2380;53.668;10.008;2022-07-29T10:44:12;5.60;;;2.30;;
4732;SDS011;2380;53.668;10.008;2022-07-29T10:46:48;7.00;;;2.13;;
4732;SDS011;2380;53.668;10.008;2022-07-29T10:49:19;8.20;;;2.70;;
4732;SDS011;2380;53.668;10.008;2022-07-29T10:51:52;8.70;;;2.30;;
4732;SDS011;2380;53.668;10.008;2022-07-29T10:54:40;9.70;;;4.90;;
4732;SDS011;2380;53.668;10.008;2022-07-29T10:57:16;8.10;;;2.30;;
4732;SDS011;2380;53.668;10.008;2022-07-29T11:02:57;8.27;;;3.60;;
4732;SDS011;2380;53.668;10.008;2022-07-29T11:08:25;10.97;;;4.37;;
4732;SDS011;2380;53.668;10.008;2022-07-29T11:14:19;7.87;;;2.60;;
4732;SDS011;2380;53.668;10.008;2022-07-29T11:17:25;9.73;;;3.60;;
4732;SDS011;2380;53.668;10.008;2022-07-29T11:23:17;7.47;;;2.23;;
4732;SDS011;2380;53.668;10.008;2022-07-29T11:28:50;7.07;;;2.90;;
4732;SDS011;2380;53.668;10.008;2022-07-29T11:31:34;9.00;;;3.40;;
4732;SDS011;2380;53.668;10.008;2022-07-29T11:34:17;5.17;;;2.53;;
4732;SDS011;2380;53.668;10.008;2022-07-29T11:40:08;9.10;;;3.00;;
4732;SDS011;2380;53.668;10.008;2022-07-29T11:42:48;5.30;;;2.30;;
4732;SDS011;2380;53.668;10.008;2022-07-29T11:45:19;6.70;;;2.93;;
4732;SDS011;2380;53.668;10.008;2022-07-29T11:48:17;7.20;;;3.33;;
4732;SDS011;2380;53.668;10.008;2022-07-29T11:50:57;8.60;;;4.30;;
4732;SDS011;2380;53.668;10.008;2022-07-29T11:53:28;6.03;;;2.60;;
4732;SDS011;2380;53.668;10.008;2022-07-29T11:55:59;11.63;;;2.57;;
4732;SDS011;2380;53.668;10.008;2022-07-29T11:58:29;4.90;;;2.00;;
4732;SDS011;2380;53.668;10.008;2022-07-29T12:00:59;8.63;;;2.53;;
4732;SDS011;2380;53.668;10.008;2022-07-29T12:03:51;8.03;;;3.03;;
4732;SDS011;2380;53.668;10.008;2022-07-29T12:06:33;7.83;;;2.83;;
4732;SDS011;2380;53.668;10.008;2022-07-29T12:09:06;14.47;;;2.70;;
4732;SDS011;2380;53.668;10.008;2022-07-29T12:11:39;15.37;;;6.00;;
4732;SDS011;2380;53.668;10.008;2022-07-29T12:14:26;6.10;;;2.20;;
4732;SDS011;2380;53.668;10.008;2022-07-29T12:16:56;6.90;;;2.60;;
4732;SDS011;2380;53.668;10.008;2022-07-29T12:19:28;6.27;;;3.23;;
4732;SDS011;2380;53.668;10.008;2022-07-29T12:21:59;6.13;;;2.10;;
4732;SDS011;2380;53.668;10.008;2022-07-29T12:24:42;5.87;;;2.00;;
4732;SDS011;2380;53.668;10.008;2022-07-29T12:27:12;5.10;;;2.07;;
4732;SDS011;2380;53.668;10.008;2022-07-29T12:29:56;12.80;;;2.50;;
4732;SDS011;2380;53.668;10.008;2022-07-29T12:32:30;6.10;;;1.83;;
4732;SDS011;2380;53.668;10.008;2022-07-29T12:35:05;11.30;;;5.70;;
4732;SDS011;2380;53.668;10.008;2022-07-29T12:37:36;5.00;;;2.00;;
4732;SDS011;2380;53.668;10.008;2022-07-29T12:40:08;5.90;;;3.00;;
4732;SDS011;2380;53.668;10.008;2022-07-29T12:42:40;8.80;;;3.67;;
4732;SDS011;2380;53.668;10.008;2022-07-29T12:45:10;6.77;;;2.40;;
4732;SDS011;2380;53.668;10.008;2022-07-29T12:47:50;5.83;;;2.80;;
4732;SDS011;2380;53.668;10.008;2022-07-29T12:50:23;5.30;;;1.90;;
4732;SDS011;2380;53.668;10.008;2022-07-29T12:52:52;6.83;;;2.30;;
4732;SDS011;2380;53.668;10.008;2022-07-29T12:58:06;7.20;;;2.57;;
4732;SDS011;2380;53.668;10.008;2022-07-29T13:00:36;6.83;;;2.53;;
4732;SDS011;2380;53.668;10.008;2022-07-29T13:03:06;6.83;;;2.87;;
4732;SDS011;2380;53.668;10.008;2022-07-29T13:05:42;4.40;;;2.10;;
4732;SDS011;2380;53.668;10.008;2022-07-29T13:08:15;6.20;;;3.27;;
4732;SDS011;2380;53.668;10.008;2022-07-29T13:10:48;5.17;;;2.63;;
4732;SDS011;2380;53.668;10.008;2022-07-29T13:13:17;5.47;;;2.57;;
4732;SDS011;2380;53.668;10.008;2022-07-29T13:15:47;7.97;;;2.80;;
4732;SDS011;2380;53.668;10.008;2022-07-29T13:18:35;7.13;;;3.40;;
4732;SDS011;2380;53.668;10.008;2022-07-29T13:21:12;5.00;;;2.17;;
4732;SDS011;2380;53.668;10.008;2022-07-29T13:23:44;6.17;;;2.03;;
4732;SDS011;2380;53.668;10.008;2022-07-29T13:26:13;9.53;;;3.40;;
4732;SDS011;2380;53.668;10.008;2022-07-29T13:28:46;7.87;;;3.80;;
4732;SDS011;2380;53.668;10.008;2022-07-29T13:31:16;7.50;;;3.50;;
4732;SDS011;2380;53.668;10.008;2022-07-29T13:33:45;13.03;;;2.53;;
4732;SDS011;2380;53.668;10.008;2022-07-29T13:36:17;9.23;;;3.30;;
4732;SDS011;2380;53.668;10.008;2022-07-29T13:38:47;6.93;;;3.83;;
4732;SDS011;2380;53.668;10.008;2022-07-29T13:41:17;8.60;;;4.00;;
4732;SDS011;2380;53.668;10.008;2022-07-29T13:43:47;8.83;;;3.30;;
4732;SDS011;2380;53.668;10.008;2022-07-29T13:46:16;12.80;;;4.03;;
4732;SDS011;2380;53.668;10.008;2022-07-29T13:48:46;5.33;;;2.33;;
4732;SDS011;2380;53.668;10.008;2022-07-29T13:51:19;10.10;;;2.63;;
4732;SDS011;2380;53.668;10.008;2022-07-29T13:53:49;6.47;;;2.80;;
4732;SDS011;2380;53.668;10.008;2022-07-29T13:56:18;9.17;;;3.03;;
4732;SDS011;2380;53.668;10.008;2022-07-29T13:58:48;5.90;;;2.90;;
4732;SDS011;2380;53.668;10.008;2022-07-29T14:01:17;10.13;;;4.10;;
4732;SDS011;2380;53.668;10.008;2022-07-29T14:03:47;7.00;;;2.40;;
4732;SDS011;2380;53.668;10.008;2022-07-29T14:06:19;7.60;;;2.20;;
4732;SDS011;2380;53.668;10.008;2022-07-29T14:08:49;5.00;;;2.17;;
4732;SDS011;2380;53.668;10.008;2022-07-29T14:11:18;6.30;;;2.80;;
4732;SDS011;2380;53.668;10.008;2022-07-29T14:13:48;5.70;;;2.53;;
4732;SDS011;2380;53.668;10.008;2022-07-29T14:16:17;5.97;;;2.50;;
4732;SDS011;2380;53.668;10.008;2022-07-29T14:18:47;13.63;;;2.70;;
4732;SDS011;2380;53.668;10.008;2022-07-29T14:21:20;9.60;;;3.30;;
4732;SDS011;2380;53.668;10.008;2022-07-29T14:23:50;8.80;;;2.67;;
4732;SDS011;2380;53.668;10.008;2022-07-29T14:26:21;13.70;;;6.93;;
4732;SDS011;2380;53.668;10.008;2022-07-29T14:28:52;10.13;;;2.70;;
4732;SDS011;2380;53.668;10.008;2022-07-29T14:31:22;5.00;;;2.53;;
4732;SDS011;2380;53.668;10.008;2022-07-29T14:33:51;17.13;;;7.23;;
4732;SDS011;2380;53.668;10.008;2022-07-29T14:36:30;10.70;;;5.63;;
4732;SDS011;2380;53.668;10.008;2022-07-29T14:38:59;5.50;;;2.73;;
4732;SDS011;2380;53.668;10.008;2022-07-29T14:41:29;9.30;;;3.77;;
4732;SDS011;2380;53.668;10.008;2022-07-29T14:43:59;9.83;;;2.13;;
4732;SDS011;2380;53.668;10.008;2022-07-29T14:46:28;8.40;;;3.67;;
4732;SDS011;2380;53.668;10.008;2022-07-29T14:48:58;12.47;;;5.00;;
4732;SDS011;2380;53.668;10.008;2022-07-29T14:51:30;16.10;;;8.80;;
4732;SDS011;2380;53.668;10.008;2022-07-29T14:54:00;13.03;;;5.40;;
4732;SDS011;2380;53.668;10.008;2022-07-29T14:56:29;11.13;;;5.90;;
4732;SDS011;2380;53.668;10.008;2022-07-29T14:59:02;17.70;;;8.37;;
4732;SDS011;2380;53.668;10.008;2022-07-29T15:01:32;11.60;;;4.10;;
4732;SDS011;2380;53.668;10.008;2022-07-29T15:04:01;8.30;;;2.90;;
4732;SDS011;2380;53.668;10.008;2022-07-29T15:06:34;9.83;;;4.63;;
4732;SDS011;2380;53.668;10.008;2022-07-29T15:09:04;9.73;;;4.80;;
4732;SDS011;2380;53.668;10.008;2022-07-29T15:11:33;10.77;;;4.13;;
4732;SDS011;2380;53.668;10.008;2022-07-29T15:14:04;10.63;;;4.13;;
4732;SDS011;2380;53.668;10.008;2022-07-29T15:16:34;5.27;;;2.60;;
4732;SDS011;2380;53.668;10.008;2022-07-29T15:19:07;9.47;;;3.50;;
4732;SDS011;2380;53.668;10.008;2022-07-29T15:21:39;11.30;;;5.07;;
4732;SDS011;2380;53.668;10.008;2022-07-29T15:24:14;7.47;;;3.03;;
4732;SDS011;2380;53.668;10.008;2022-07-29T15:26:43;12.90;;;6.20;;
4732;SDS011;2380;53.668;10.008;2022-07-29T15:29:13;7.00;;;2.60;;
4732;SDS011;2380;53.668;10.008;2022-07-29T15:31:43;7.43;;;2.97;;
4732;SDS011;2380;53.668;10.008;2022-07-29T15:34:13;8.40;;;3.37;;
4732;SDS011;2380;53.668;10.008;2022-07-29T15:36:45;8.40;;;2.63;;
4732;SDS011;2380;53.668;10.008;2022-07-29T15:39:18;6.90;;;2.87;;
4732;SDS011;2380;53.668;10.008;2022-07-29T15:41:48;6.63;;;2.63;;
4732;SDS011;2380;53.668;10.008;2022-07-29T15:44:18;7.93;;;3.47;;
4732;SDS011;2380;53.668;10.008;2022-07-29T15:46:48;17.20;;;5.30;;
4732;SDS011;2380;53.668;10.008;2022-07-29T15:49:33;11.50;;;2.53;;
4732;SDS011;2380;53.668;10.008;2022-07-29T15:52:17;12.00;;;3.70;;
4732;SDS011;2380;53.668;10.008;2022-07-29T15:54:51;8.10;;;3.37;;